createdAt,value
2022-11-26T00:02:21.667Z,7.60
2022-11-26T00:04:48.958Z,7.60
2022-11-26T00:07:21.698Z,7.60
2022-11-26T00:09:53.027Z,7.60
2022-11-26T00:12:21.247Z,7.60
2022-11-26T00:14:48.757Z,7.50
2022-11-26T00:17:16.268Z,7.50
2022-11-26T00:19:44.484Z,7.50
2022-11-26T00:22:36.871Z,7.50
2022-11-26T00:25:03.723Z,7.40
2022-11-26T00:27:30.287Z,7.40
2022-11-26T00:29:57.206Z,7.40
2022-11-26T00:32:25.611Z,7.30
2022-11-26T00:34:53.126Z,7.30
2022-11-26T00:37:27.514Z,7.30
2022-11-26T00:39:55.610Z,7.40
2022-11-26T00:42:22.278Z,7.30
2022-11-26T00:44:49.026Z,7.40
2022-11-26T00:47:15.821Z,7.30
2022-11-26T00:49:42.400Z,7.30
2022-11-26T00:52:33.780Z,7.30
2022-11-26T00:55:06.592Z,7.20
2022-11-26T00:57:33.392Z,7.20
2022-11-26T01:00:00.210Z,7.20
2022-11-26T01:02:26.930Z,7.10
2022-11-26T01:04:53.657Z,7.10
2022-11-26T01:07:20.483Z,7.00
2022-11-26T01:09:48.009Z,7.00
2022-11-26T01:12:15.287Z,7.00
2022-11-26T01:14:41.983Z,7.00
2022-11-26T01:17:11.815Z,6.90
2022-11-26T01:19:38.459Z,6.90
2022-11-26T01:22:05.447Z,6.90
2022-11-26T01:24:32.313Z,6.90
2022-11-26T01:26:58.902Z,6.90
2022-11-26T01:29:25.471Z,7.00
2022-11-26T01:31:52.281Z,7.00
2022-11-26T01:34:18.924Z,6.90
2022-11-26T01:36:45.587Z,6.90
2022-11-26T01:39:16.736Z,7.00
2022-11-26T01:42:18.798Z,6.90
2022-11-26T01:44:45.941Z,6.90
2022-11-26T01:47:29.902Z,6.80
2022-11-26T01:50:30.518Z,6.80
2022-11-26T01:53:06.334Z,6.70
2022-11-26T01:55:39.657Z,6.80
2022-11-26T01:58:09.919Z,6.80
2022-11-26T02:00:36.651Z,6.80
2022-11-26T02:03:04.704Z,6.80
2022-11-26T02:05:39.275Z,6.80
2022-11-26T02:08:06.385Z,6.80
2022-11-26T02:10:34.203Z,6.80
2022-11-26T02:13:00.947Z,6.90
2022-11-26T02:15:33.164Z,6.90
2022-11-26T02:18:06.308Z,7.00
2022-11-26T02:20:38.206Z,6.90
2022-11-26T02:23:32.334Z,6.90
2022-11-26T02:26:21.131Z,6.90
2022-11-26T02:28:58.513Z,6.90
2022-11-26T02:31:34.400Z,6.90
2022-11-26T02:34:04.502Z,6.90
2022-11-26T02:36:38.435Z,6.90
2022-11-26T02:39:22.828Z,6.80
2022-11-26T02:41:55.505Z,6.80
2022-11-26T02:44:44.250Z,6.80
2022-11-26T02:47:17.885Z,6.80
2022-11-26T02:49:46.330Z,6.80
2022-11-26T02:52:16.498Z,6.80
2022-11-26T02:54:45.692Z,6.80
2022-11-26T02:57:15.351Z,6.80
2022-11-26T02:59:42.758Z,6.80
2022-11-26T03:02:31.827Z,6.80
2022-11-26T03:05:01.514Z,6.80
2022-11-26T03:07:32.051Z,6.80
2022-11-26T03:10:00.524Z,6.80
2022-11-26T03:12:28.355Z,6.80
2022-11-26T03:14:55.433Z,6.80
2022-11-26T03:17:22.222Z,6.80
2022-11-26T03:19:48.792Z,6.80
2022-11-26T03:22:16.431Z,6.80
2022-11-26T03:24:43.320Z,6.90
2022-11-26T03:27:09.978Z,6.80
2022-11-26T03:29:36.750Z,6.80
2022-11-26T03:32:04.146Z,6.80
2022-11-26T03:34:31.180Z,6.80
2022-11-26T03:36:57.783Z,6.80
2022-11-26T03:39:24.592Z,6.80
2022-11-26T03:41:51.213Z,6.80
2022-11-26T03:44:17.951Z,6.70
2022-11-26T03:46:44.507Z,6.70
2022-11-26T03:49:11.141Z,6.70
2022-11-26T03:51:38.065Z,6.70
2022-11-26T03:54:04.962Z,6.60
2022-11-26T03:56:31.838Z,6.70
2022-11-26T03:58:58.618Z,6.70
2022-11-26T04:01:25.655Z,6.60
2022-11-26T04:03:52.516Z,6.60
2022-11-26T04:06:19.252Z,6.60
2022-11-26T04:08:45.881Z,6.60
2022-11-26T04:11:12.753Z,6.60
2022-11-26T04:13:39.501Z,6.60
2022-11-26T04:16:06.745Z,6.60
2022-11-26T04:18:33.455Z,6.60
2022-11-26T04:21:00.024Z,6.60
2022-11-26T04:23:27.142Z,6.60
2022-11-26T04:25:54.018Z,6.60
2022-11-26T04:28:20.603Z,6.60
2022-11-26T04:30:47.431Z,6.50
2022-11-26T04:33:14.149Z,6.60
2022-11-26T04:35:40.865Z,6.50
2022-11-26T04:38:07.643Z,6.50
2022-11-26T04:40:34.296Z,6.50
2022-11-26T04:43:00.901Z,6.50
2022-11-26T04:45:27.631Z,6.50
2022-11-26T04:47:54.851Z,6.40
2022-11-26T04:50:21.602Z,6.50
2022-11-26T04:52:49.964Z,6.50
2022-11-26T04:55:17.476Z,6.50
2022-11-26T04:57:48.790Z,6.50
2022-11-26T05:00:17.835Z,6.40
2022-11-26T05:02:45.254Z,6.40
2022-11-26T05:05:12.543Z,6.40
2022-11-26T05:07:39.963Z,6.40
2022-11-26T05:10:10.583Z,6.40
2022-11-26T05:12:37.381Z,6.30
2022-11-26T05:15:05.102Z,6.30
2022-11-26T05:17:32.731Z,6.40
2022-11-26T05:19:59.386Z,6.30
2022-11-26T05:22:26.165Z,6.20
2022-11-26T05:24:52.899Z,6.20
2022-11-26T05:27:19.619Z,6.10
2022-11-26T05:29:48.196Z,6.10
2022-11-26T05:32:15.057Z,6.10
2022-11-26T05:34:43.188Z,6.00
2022-11-26T05:37:10.169Z,6.00
2022-11-26T05:39:38.334Z,5.90
2022-11-26T05:42:09.173Z,5.90
2022-11-26T05:44:37.041Z,6.10
2022-11-26T05:47:04.230Z,5.70
2022-11-26T05:49:30.811Z,5.70
2022-11-26T05:51:57.437Z,5.80
2022-11-26T05:54:24.195Z,5.90
2022-11-26T05:56:54.259Z,6.00
2022-11-26T05:59:25.546Z,6.00
2022-11-26T06:01:52.403Z,6.00
2022-11-26T06:04:19.167Z,6.00
2022-11-26T06:06:46.024Z,6.10
2022-11-26T06:09:13.907Z,6.10
2022-11-26T06:11:42.082Z,6.10
2022-11-26T06:14:10.402Z,6.20
2022-11-26T06:16:37.035Z,6.10
2022-11-26T06:19:03.889Z,6.10
2022-11-26T06:21:31.083Z,6.10
2022-11-26T06:23:59.611Z,6.00
2022-11-26T06:26:26.704Z,6.00
2022-11-26T06:28:53.660Z,6.00
2022-11-26T06:31:20.504Z,6.10
2022-11-26T06:33:47.315Z,6.10
2022-11-26T06:36:14.592Z,6.20
2022-11-26T06:38:41.269Z,6.20
2022-11-26T06:41:08.961Z,6.20
2022-11-26T06:43:35.746Z,6.30
2022-11-26T06:46:10.312Z,6.30
2022-11-26T06:48:38.913Z,6.30
2022-11-26T06:51:09.271Z,6.30
2022-11-26T06:53:38.516Z,6.40
2022-11-26T06:56:08.459Z,6.30
2022-11-26T06:58:35.322Z,6.40
2022-11-26T07:01:11.878Z,6.40
2022-11-26T07:03:38.845Z,6.40
2022-11-26T07:06:05.631Z,6.40
2022-11-26T07:08:33.738Z,6.50
2022-11-26T07:11:05.686Z,6.50
2022-11-26T07:13:32.409Z,6.50
2022-11-26T07:16:08.727Z,6.50
2022-11-26T07:18:35.546Z,6.50
2022-11-26T07:21:10.730Z,6.50
2022-11-26T07:23:38.124Z,6.50
2022-11-26T07:26:05.935Z,6.50
2022-11-26T07:28:34.327Z,6.40
2022-11-26T07:31:02.417Z,6.40
2022-11-26T07:33:29.879Z,6.50
2022-11-26T07:36:04.554Z,6.50
2022-11-26T07:38:31.699Z,6.50
2022-11-26T07:41:08.955Z,6.50
2022-11-26T07:43:37.050Z,6.50
2022-11-26T07:46:05.760Z,6.50
2022-11-26T07:48:33.468Z,6.50
2022-11-26T07:51:01.621Z,6.50
2022-11-26T07:53:33.419Z,6.50
2022-11-26T07:56:00.020Z,6.50
2022-11-26T07:58:29.537Z,6.60
2022-11-26T08:00:56.517Z,6.60
2022-11-26T08:03:23.123Z,6.50
2022-11-26T08:05:49.876Z,6.50
2022-11-26T08:08:16.453Z,6.50
2022-11-26T08:10:43.040Z,6.50
2022-11-26T08:13:11.362Z,6.50
2022-11-26T08:15:38.135Z,6.60
2022-11-26T08:18:04.853Z,6.60
2022-11-26T08:20:31.740Z,6.60
2022-11-26T08:22:58.318Z,6.60
2022-11-26T08:25:27.558Z,6.70
2022-11-26T08:27:54.224Z,6.70
2022-11-26T08:30:20.941Z,6.70
2022-11-26T08:32:47.529Z,6.70
2022-11-26T08:35:14.257Z,6.70
2022-11-26T08:37:42.664Z,6.80
2022-11-26T08:40:13.777Z,6.80
2022-11-26T08:42:40.691Z,6.80
2022-11-26T08:45:07.886Z,6.80
2022-11-26T08:47:34.485Z,6.80
2022-11-26T08:50:01.108Z,6.90
2022-11-26T08:52:27.823Z,6.80
2022-11-26T08:54:54.598Z,6.90
2022-11-26T08:57:21.258Z,6.90
2022-11-26T08:59:47.859Z,6.90
2022-11-26T09:02:18.650Z,7.00
2022-11-26T09:04:45.664Z,7.00
2022-11-26T09:07:12.584Z,7.00
2022-11-26T09:09:39.362Z,7.00
2022-11-26T09:12:06.242Z,7.10
2022-11-26T09:14:39.499Z,7.10
2022-11-26T09:17:07.229Z,7.10
2022-11-26T09:19:33.869Z,7.20
2022-11-26T09:22:00.644Z,7.20
2022-11-26T09:24:28.626Z,7.20
2022-11-26T09:26:55.305Z,7.20
2022-11-26T09:29:23.485Z,7.20
2022-11-26T09:34:38.905Z,7.20
2022-11-26T09:37:06.262Z,7.00
2022-11-26T09:39:33.044Z,7.20
2022-11-26T09:42:08.423Z,6.90
2022-11-26T09:45:00.619Z,6.90
2022-11-26T09:47:31.739Z,6.90
2022-11-26T09:50:13.294Z,6.90
2022-11-26T09:53:01.513Z,6.90
2022-11-26T09:55:36.277Z,6.90
2022-11-26T09:58:27.079Z,7.00
2022-11-26T10:00:57.088Z,7.10
2022-11-26T10:03:35.113Z,7.10
2022-11-26T10:06:29.948Z,7.10
2022-11-26T10:09:22.518Z,7.20
2022-11-26T10:12:24.760Z,7.10
2022-11-26T10:15:16.458Z,7.00
2022-11-26T10:17:54.462Z,7.00
2022-11-26T10:20:33.847Z,7.10
2022-11-26T10:23:11.240Z,7.10
2022-11-26T10:26:12.132Z,7.10
2022-11-26T10:28:43.843Z,7.00
2022-11-26T10:31:27.214Z,7.10
2022-11-26T10:33:58.001Z,7.20
2022-11-26T10:36:45.967Z,7.20
2022-11-26T10:39:17.800Z,7.20
2022-11-26T10:41:45.179Z,7.30
2022-11-26T10:44:43.571Z,7.20
2022-11-26T10:47:27.280Z,7.20
2022-11-26T10:50:00.954Z,7.20
2022-11-26T10:52:30.715Z,7.20
2022-11-26T10:55:15.563Z,7.20
2022-11-26T10:57:46.830Z,7.20
2022-11-26T11:00:43.068Z,7.30
2022-11-26T11:03:51.712Z,7.40
2022-11-26T11:06:21.312Z,7.30
2022-11-26T11:08:50.147Z,7.30
2022-11-26T11:11:22.973Z,7.50
2022-11-26T11:13:49.790Z,7.40
2022-11-26T11:16:29.312Z,7.50
2022-11-26T11:18:59.266Z,7.50
2022-11-26T11:21:33.978Z,7.40
2022-11-26T11:24:16.508Z,7.40
2022-11-26T11:26:47.939Z,7.40
2022-11-26T11:29:29.281Z,7.30
2022-11-26T11:31:57.878Z,7.30
2022-11-26T11:34:40.058Z,7.20
2022-11-26T11:37:16.765Z,7.20
2022-11-26T11:39:44.152Z,7.30
2022-11-26T11:42:29.371Z,7.30
2022-11-26T11:44:58.261Z,7.20
2022-11-26T11:47:56.506Z,7.20
2022-11-26T11:50:35.450Z,7.30
2022-11-26T11:56:52.583Z,7.40
2022-11-26T11:59:36.209Z,7.40
2022-11-26T12:02:37.536Z,7.50
2022-11-26T12:05:22.759Z,7.50
2022-11-26T12:08:07.865Z,7.40
2022-11-26T12:10:55.467Z,7.50
2022-11-26T12:13:24.728Z,7.60
2022-11-26T12:16:00.969Z,7.70
2022-11-26T12:18:40.405Z,7.60
2022-11-26T12:21:13.546Z,7.60
2022-11-26T12:24:02.568Z,7.70
2022-11-26T12:26:42.458Z,7.70
2022-11-26T12:29:27.259Z,7.70
2022-11-26T12:31:59.856Z,7.70
2022-11-26T12:34:39.698Z,7.70
2022-11-26T12:37:15.107Z,7.80
2022-11-26T12:39:53.655Z,7.80
2022-11-26T12:42:45.173Z,7.70
2022-11-26T12:45:28.551Z,7.60
2022-11-26T12:48:03.918Z,7.80
2022-11-26T12:50:44.088Z,7.80
2022-11-26T12:53:44.728Z,7.70
2022-11-26T12:56:34.773Z,7.70
2022-11-26T12:59:23.274Z,7.70
2022-11-26T13:01:50.867Z,7.60
2022-11-26T13:04:37.199Z,7.50
2022-11-26T13:07:29.042Z,7.50
2022-11-26T13:10:08.685Z,7.60
2022-11-26T13:13:20.974Z,7.50
2022-11-26T13:16:20.852Z,7.60
2022-11-26T13:18:56.358Z,7.60
2022-11-26T13:22:00.626Z,7.60
2022-11-26T13:24:44.574Z,7.70
2022-11-26T13:27:36.061Z,7.70
2022-11-26T13:30:26.547Z,7.70
2022-11-26T13:33:14.636Z,7.70
2022-11-26T13:36:16.020Z,7.70
2022-11-26T13:38:58.456Z,7.70
2022-11-26T13:41:34.701Z,7.80
2022-11-26T13:44:15.629Z,7.80
2022-11-26T13:47:07.589Z,7.90
2022-11-26T13:49:44.536Z,7.90
2022-11-26T13:52:26.150Z,7.90
2022-11-26T13:55:09.343Z,7.90
2022-11-26T13:57:46.159Z,7.90
2022-11-26T14:00:33.166Z,7.80
2022-11-26T14:03:01.751Z,7.90
2022-11-26T14:05:48.588Z,7.90
2022-11-26T14:08:41.493Z,7.90
2022-11-26T14:11:09.054Z,8.00
2022-11-26T14:13:35.816Z,8.00
2022-11-26T14:16:09.210Z,8.10
2022-11-26T14:18:51.849Z,8.10
2022-11-26T14:21:20.027Z,8.10
2022-11-26T14:23:48.746Z,8.00
2022-11-26T14:26:39.413Z,8.00
2022-11-26T14:29:08.760Z,8.10
2022-11-26T14:31:39.013Z,8.00
2022-11-26T14:34:15.644Z,8.00
2022-11-26T14:36:54.973Z,8.00
2022-11-26T14:39:21.769Z,8.00
2022-11-26T14:41:48.384Z,7.90
2022-11-26T14:44:17.124Z,7.90
2022-11-26T14:46:47.787Z,8.00
2022-11-26T14:49:40.519Z,8.00
2022-11-26T14:52:20.660Z,7.90
2022-11-26T14:54:51.574Z,7.90
2022-11-26T14:57:40.199Z,7.90
2022-11-26T15:00:15.655Z,7.90
2022-11-26T15:02:45.742Z,7.90
2022-11-26T15:05:18.798Z,8.00
2022-11-26T15:07:46.860Z,8.00
2022-11-26T15:10:20.151Z,8.00
2022-11-26T15:12:50.318Z,8.00
2022-11-26T15:15:20.159Z,8.10
2022-11-26T15:18:01.117Z,8.20
2022-11-26T15:20:27.859Z,8.20
2022-11-26T15:23:00.712Z,8.10
2022-11-26T15:25:29.764Z,8.10
2022-11-26T15:28:00.755Z,8.10
2022-11-26T15:30:30.124Z,8.10
2022-11-26T15:33:13.059Z,8.10
2022-11-26T15:35:40.944Z,8.10
2022-11-26T15:38:20.058Z,8.10
2022-11-26T15:40:57.226Z,8.10
2022-11-26T15:43:43.819Z,8.10
2022-11-26T15:46:24.054Z,8.00
2022-11-26T15:49:00.509Z,8.00
2022-11-26T15:51:37.542Z,8.00
2022-11-26T15:54:07.545Z,7.90
2022-11-26T15:56:37.979Z,7.90
2022-11-26T15:59:15.236Z,7.80
2022-11-26T16:01:45.887Z,7.80
2022-11-26T16:04:51.862Z,7.80
2022-11-26T16:07:24.288Z,7.90
2022-11-26T16:10:08.637Z,7.90
2022-11-26T16:12:44.108Z,7.90
2022-11-26T16:15:21.446Z,7.80
2022-11-26T16:17:49.260Z,8.00
2022-11-26T16:20:22.805Z,8.00
2022-11-26T16:22:52.731Z,8.00
2022-11-26T16:25:23.783Z,8.00
2022-11-26T16:28:14.856Z,8.10
2022-11-26T16:30:44.040Z,8.00
2022-11-26T16:33:10.730Z,8.00
2022-11-26T16:35:46.689Z,8.00
2022-11-26T16:38:27.437Z,8.00
2022-11-26T16:40:54.660Z,8.00
2022-11-26T16:43:22.211Z,8.10
2022-11-26T16:45:50.230Z,8.10
2022-11-26T16:48:27.466Z,8.10
2022-11-26T16:50:55.685Z,8.10
2022-11-26T16:53:23.220Z,8.10
2022-11-26T16:55:50.714Z,8.10
2022-11-26T16:58:27.973Z,8.10
2022-11-26T17:00:55.734Z,8.10
2022-11-26T17:03:23.136Z,8.20
2022-11-26T17:05:53.534Z,8.20
2022-11-26T17:08:21.219Z,8.20
2022-11-26T17:10:48.000Z,8.20
2022-11-26T17:13:15.584Z,8.30
2022-11-26T17:15:43.042Z,8.20
2022-11-26T17:18:21.685Z,8.30
2022-11-26T17:20:48.799Z,8.30
2022-11-26T17:23:16.048Z,8.30
2022-11-26T17:25:48.479Z,8.30
2022-11-26T17:28:16.026Z,8.20
2022-11-26T17:30:43.981Z,8.30
2022-11-26T17:33:11.353Z,8.30
2022-11-26T17:35:38.335Z,8.30
2022-11-26T17:38:14.777Z,8.20
2022-11-26T17:40:41.719Z,8.30
2022-11-26T17:43:08.303Z,8.20
2022-11-26T17:45:35.256Z,8.20
2022-11-26T17:48:01.894Z,8.30
2022-11-26T17:50:30.467Z,8.30
2022-11-26T17:52:57.004Z,8.20
2022-11-26T17:55:25.285Z,8.30
2022-11-26T17:57:55.136Z,8.30
2022-11-26T18:00:25.166Z,8.30
2022-11-26T18:02:52.169Z,8.30
2022-11-26T18:05:19.098Z,8.20
2022-11-26T18:07:45.781Z,8.30
2022-11-26T18:10:14.658Z,8.30
2022-11-26T18:12:41.399Z,8.20
2022-11-26T18:15:08.696Z,8.20
2022-11-26T18:17:35.269Z,8.20
2022-11-26T18:20:01.791Z,8.30
2022-11-26T18:22:29.125Z,8.20
2022-11-26T18:24:57.655Z,8.20
2022-11-26T18:27:28.763Z,8.20
2022-11-26T18:29:55.466Z,8.30
2022-11-26T18:32:22.329Z,8.30
2022-11-26T18:34:50.796Z,8.30
2022-11-26T18:37:18.374Z,8.30
2022-11-26T18:39:45.068Z,8.30
2022-11-26T18:42:36.188Z,8.30
2022-11-26T18:44:59.909Z,8.30
2022-11-26T18:47:26.683Z,8.20
2022-11-26T18:49:53.328Z,8.20
2022-11-26T18:52:20.030Z,8.30
2022-11-26T18:54:46.638Z,8.30
2022-11-26T18:57:13.247Z,8.40
2022-11-26T18:59:40.203Z,8.30
2022-11-26T19:02:08.643Z,8.40
2022-11-26T19:04:35.480Z,8.40
2022-11-26T19:07:02.307Z,8.40
2022-11-26T19:09:29.049Z,8.50
2022-11-26T19:11:58.133Z,8.50
2022-11-26T19:14:24.904Z,8.50
2022-11-26T19:16:52.349Z,8.50
2022-11-26T19:19:19.286Z,8.70
2022-11-26T19:21:46.175Z,8.40
2022-11-26T19:24:13.743Z,8.40
2022-11-26T19:26:42.054Z,8.50
2022-11-26T19:29:11.062Z,8.50
2022-11-26T19:31:39.881Z,8.40
2022-11-26T19:34:11.467Z,8.50
2022-11-26T19:36:38.417Z,8.50
2022-11-26T19:39:06.362Z,8.60
2022-11-26T19:41:34.611Z,8.60
2022-11-26T19:44:03.502Z,8.60
2022-11-26T19:46:30.346Z,8.60
2022-11-26T19:48:57.384Z,8.60
2022-11-26T19:51:25.044Z,8.70
2022-11-26T19:53:53.389Z,8.60
2022-11-26T19:56:25.230Z,8.70
2022-11-26T19:58:54.079Z,8.70
2022-11-26T20:01:21.736Z,8.70
2022-11-26T20:03:48.943Z,8.70
2022-11-26T20:06:19.442Z,8.70
2022-11-26T20:08:47.652Z,8.70
2022-11-26T20:11:16.079Z,8.70
2022-11-26T20:13:44.358Z,8.70
2022-11-26T20:16:14.980Z,8.60
2022-11-26T20:18:41.877Z,8.60
2022-11-26T20:21:12.722Z,8.60
2022-11-26T20:23:40.006Z,8.60
2022-11-26T20:26:27.954Z,8.70
2022-11-26T20:28:55.918Z,8.70
2022-11-26T20:31:24.255Z,8.70
2022-11-26T20:33:54.888Z,8.70
2022-11-26T20:36:23.214Z,8.70
2022-11-26T20:38:58.105Z,8.80
2022-11-26T20:41:28.511Z,8.80
2022-11-26T20:43:59.068Z,8.80
2022-11-26T20:46:27.449Z,8.80
2022-11-26T20:48:54.268Z,8.80
2022-11-26T20:51:22.439Z,8.80
2022-11-26T20:53:50.635Z,8.80
2022-11-26T20:56:19.605Z,8.80
2022-11-26T20:58:46.251Z,8.80
2022-11-26T21:01:20.417Z,8.70
2022-11-26T21:03:47.404Z,8.70
2022-11-26T21:06:15.678Z,8.70
2022-11-26T21:08:42.962Z,8.60
2022-11-26T21:11:10.954Z,8.60
2022-11-26T21:13:39.033Z,8.60
2022-11-26T21:16:07.508Z,8.60
2022-11-26T21:18:34.473Z,8.60
2022-11-26T21:21:07.466Z,8.60
2022-11-26T21:23:34.576Z,8.60
2022-11-26T21:26:08.661Z,8.60
2022-11-26T21:28:35.724Z,8.60
2022-11-26T21:31:14.476Z,8.70
2022-11-26T21:33:41.174Z,8.60
2022-11-26T21:36:09.890Z,8.60
2022-11-26T21:38:37.435Z,8.60
2022-11-26T21:41:14.033Z,8.60
2022-11-26T21:43:41.318Z,8.60
2022-11-26T21:46:10.195Z,8.60
2022-11-26T21:48:37.089Z,8.60
2022-11-26T21:51:08.472Z,8.60
2022-11-26T21:53:35.524Z,8.60
2022-11-26T21:56:22.755Z,8.60
2022-11-26T21:58:49.952Z,8.60
2022-11-26T22:01:20.454Z,8.50
2022-11-26T22:03:51.388Z,8.50
2022-11-26T22:06:19.550Z,8.50
2022-11-26T22:08:49.791Z,8.50
2022-11-26T22:11:25.030Z,8.50
2022-11-26T22:13:52.330Z,8.50
2022-11-26T22:16:21.086Z,8.50
2022-11-26T22:18:48.902Z,8.50
2022-11-26T22:21:18.509Z,8.50
2022-11-26T22:23:46.212Z,8.50
2022-11-26T22:26:12.925Z,8.50
2022-11-26T22:28:40.589Z,8.50
2022-11-26T22:31:19.884Z,8.50
2022-11-26T22:33:47.026Z,8.50
2022-11-26T22:36:13.807Z,8.50
2022-11-26T22:38:41.481Z,8.50
2022-11-26T22:41:11.893Z,8.50
2022-11-26T22:43:38.907Z,8.60
2022-11-26T22:46:07.400Z,8.60
2022-11-26T22:48:34.853Z,8.60
2022-11-26T22:51:01.977Z,8.60
2022-11-26T22:53:28.760Z,8.60
2022-11-26T22:55:57.239Z,8.60
2022-11-26T22:58:25.922Z,8.60
2022-11-26T23:00:56.824Z,8.60
2022-11-26T23:03:24.905Z,8.60
2022-11-26T23:05:52.087Z,8.70
2022-11-26T23:08:19.090Z,8.60
2022-11-26T23:10:45.908Z,8.70
2022-11-26T23:13:13.454Z,8.70
2022-11-26T23:15:44.752Z,8.70
2022-11-26T23:18:13.383Z,8.70
2022-11-26T23:20:40.793Z,8.70
2022-11-26T23:23:07.632Z,8.70
2022-11-26T23:25:38.011Z,8.70
2022-11-26T23:28:06.454Z,8.70
2022-11-26T23:30:33.313Z,8.70
2022-11-26T23:33:00.045Z,8.70
2022-11-26T23:35:26.754Z,8.80
2022-11-26T23:37:53.485Z,8.60
2022-11-26T23:40:20.086Z,8.60
2022-11-26T23:42:47.005Z,8.60
2022-11-26T23:45:13.635Z,8.60
2022-11-26T23:47:40.466Z,8.60
2022-11-26T23:50:08.287Z,8.50
2022-11-26T23:52:36.304Z,8.50
2022-11-26T23:55:03.190Z,8.50
2022-11-26T23:57:29.993Z,8.50
2022-11-26T23:59:56.713Z,8.40
